sensor_id;sensor_type;location;lat;lon;timestamp;pressure;altitude;pressure_sealevel;temperature;humidity
26861;BME280;37676;46.956;7.430;2022-09-11T00:00:37;95601.94;;;21.25;48.49
26861;BME280;37676;46.956;7.430;2022-09-11T00:03:03;95613.25;;;21.25;48.54
26861;BME280;37676;46.956;7.430;2022-09-11T00:05:28;95528.72;;;20.73;48.69
26861;BME280;37676;46.956;7.430;2022-09-11T00:07:54;95607.59;;;21.25;48.56
26861;BME280;37676;46.956;7.430;2022-09-11T00:10:21;95618.16;;;21.24;48.72
26861;BME280;37676;46.956;7.430;2022-09-11T00:12:46;95607.59;;;21.25;48.76
26861;BME280;37676;46.956;7.430;2022-09-11T00:15:13;95565.88;;;20.97;48.67
26861;BME280;37676;46.956;7.430;2022-09-11T00:17:39;95606.84;;;21.24;48.71
26861;BME280;37676;46.956;7.430;2022-09-11T00:20:04;95600.41;;;21.24;48.72
26861;BME280;37676;46.956;7.430;2022-09-11T00:22:30;95583.53;;;21.11;48.63
26861;BME280;37676;46.956;7.430;2022-09-11T00:24:56;95426.78;;;20.01;48.83
26861;BME280;37676;46.956;7.430;2022-09-11T00:27:24;95546.91;;;20.85;48.93
26861;BME280;37676;46.956;7.430;2022-09-11T00:29:49;95609.41;;;21.15;48.94
26861;BME280;37676;46.956;7.430;2022-09-11T00:32:14;95603.75;;;21.15;48.82
26861;BME280;37676;46.956;7.430;2022-09-11T00:34:40;95416.16;;;19.94;48.86
26861;BME280;37676;46.956;7.430;2022-09-11T00:37:06;95581.00;;;21.00;49.07
26861;BME280;37676;46.956;7.430;2022-09-11T00:39:31;95432.72;;;19.90;48.92
26861;BME280;37676;46.956;7.430;2022-09-11T00:41:57;95603.34;;;21.11;49.04
26861;BME280;37676;46.956;7.430;2022-09-11T00:46:50;95343.19;;;19.36;49.06
26861;BME280;37676;46.956;7.430;2022-09-11T00:51:56;95581.88;;;20.95;49.19
26861;BME280;37676;46.956;7.430;2022-09-11T00:54:28;95596.97;;;21.18;49.20
26861;BME280;37676;46.956;7.430;2022-09-11T00:56:56;95595.47;;;21.17;49.19
26861;BME280;37676;46.956;7.430;2022-09-11T00:59:24;95591.31;;;21.18;49.17
26861;BME280;37676;46.956;7.430;2022-09-11T01:01:52;95565.13;;;20.97;49.12
26861;BME280;37676;46.956;7.430;2022-09-11T01:04:19;95515.88;;;20.71;49.29
26861;BME280;37676;46.956;7.430;2022-09-11T01:06:45;95592.41;;;21.15;49.30
26861;BME280;37676;46.956;7.430;2022-09-11T01:09:12;95581.09;;;21.15;49.41
26861;BME280;37676;46.956;7.430;2022-09-11T01:12:05;95572.34;;;21.05;49.36
26861;BME280;37676;46.956;7.430;2022-09-11T01:14:39;95580.69;;;21.11;49.38
26861;BME280;37676;46.956;7.430;2022-09-11T01:17:25;95578.06;;;21.13;49.33
26861;BME280;37676;46.956;7.430;2022-09-11T01:26:16;95571.22;;;21.01;49.50
26861;BME280;37676;46.956;7.430;2022-09-11T01:28:58;95517.38;;;20.65;49.37
26861;BME280;37676;46.956;7.430;2022-09-11T01:31:32;95571.94;;;21.01;49.41
26861;BME280;37676;46.956;7.430;2022-09-11T01:34:09;95585.34;;;21.01;49.50
26861;BME280;37676;46.956;7.430;2022-09-11T01:36:43;95576.88;;;21.01;49.47
26861;BME280;37676;46.956;7.430;2022-09-11T01:39:11;95562.78;;;20.88;49.61
26861;BME280;37676;46.956;7.430;2022-09-11T01:42:02;95566.63;;;20.98;49.67
26861;BME280;37676;46.956;7.430;2022-09-11T01:44:35;95432.81;;;20.05;49.62
26861;BME280;37676;46.956;7.430;2022-09-11T01:47:03;95565.06;;;20.89;49.80
26861;BME280;37676;46.956;7.430;2022-09-11T01:49:55;95573.41;;;20.95;49.71
26861;BME280;37676;46.956;7.430;2022-09-11T01:52:33;95570.56;;;20.95;49.67
26861;BME280;37676;46.956;7.430;2022-09-11T01:55:07;95581.13;;;20.94;49.69
26861;BME280;37676;46.956;7.430;2022-09-11T01:57:45;95581.88;;;20.95;49.77
26861;BME280;37676;46.956;7.430;2022-09-11T02:00:13;95592.78;;;20.91;49.79
26861;BME280;37676;46.956;7.430;2022-09-11T02:02:43;95586.56;;;20.92;49.94
26861;BME280;37676;46.956;7.430;2022-09-11T02:05:16;95569.88;;;20.81;49.76
26861;BME280;37676;46.956;7.430;2022-09-11T02:07:58;95579.97;;;20.90;49.85
26861;BME280;37676;46.956;7.430;2022-09-11T02:10:35;95586.91;;;20.89;49.92
26861;BME280;37676;46.956;7.430;2022-09-11T02:13:13;95401.22;;;19.65;49.92
26861;BME280;37676;46.956;7.430;2022-09-11T02:15:43;95518.28;;;20.39;49.87
26861;BME280;37676;46.956;7.430;2022-09-11T02:20:46;95550.25;;;20.55;50.00
26861;BME280;37676;46.956;7.430;2022-09-11T02:23:13;95585.28;;;20.73;50.10
26861;BME280;37676;46.956;7.430;2022-09-11T02:25:40;95580.94;;;20.71;49.99
26861;BME280;37676;46.956;7.430;2022-09-11T02:28:06;95578.09;;;20.71;50.24
26861;BME280;37676;46.956;7.430;2022-09-11T02:30:31;95555.16;;;20.54;50.12
26861;BME280;37676;46.956;7.430;2022-09-11T02:32:56;95570.94;;;20.70;50.15
26861;BME280;37676;46.956;7.430;2022-09-11T02:35:26;95562.19;;;20.61;50.06
26861;BME280;37676;46.956;7.430;2022-09-11T02:38:20;95571.91;;;20.73;50.02
26861;BME280;37676;46.956;7.430;2022-09-11T02:41:10;95578.88;;;20.72;50.12
26861;BME280;37676;46.956;7.430;2022-09-11T02:51:32;95582.81;;;20.69;50.30
26861;BME280;37676;46.956;7.430;2022-09-11T02:54:09;95573.56;;;20.68;50.22
26861;BME280;37676;46.956;7.430;2022-09-11T02:59:13;95563.38;;;20.65;50.33
26861;BME280;37676;46.956;7.430;2022-09-11T03:01:45;95567.78;;;20.53;50.52
26861;BME280;37676;46.956;7.430;2022-09-11T03:04:11;95570.81;;;20.55;50.30
26861;BME280;37676;46.956;7.430;2022-09-11T03:06:36;95579.09;;;20.53;50.25
26861;BME280;37676;46.956;7.430;2022-09-11T03:09:02;95583.03;;;20.50;50.23
26861;BME280;37676;46.956;7.430;2022-09-11T03:11:28;95581.84;;;20.46;50.28
26861;BME280;37676;46.956;7.430;2022-09-11T03:13:53;95580.88;;;20.43;50.29
26861;BME280;37676;46.956;7.430;2022-09-11T03:16:18;95576.31;;;20.40;50.50
26861;BME280;37676;46.956;7.430;2022-09-11T03:18:44;95490.94;;;19.80;50.50
26861;BME280;37676;46.956;7.430;2022-09-11T03:21:09;95573.06;;;20.36;50.40
26861;BME280;37676;46.956;7.430;2022-09-11T03:23:35;95572.91;;;20.34;50.52
26861;BME280;37676;46.956;7.430;2022-09-11T03:26:01;95556.00;;;20.21;50.53
26861;BME280;37676;46.956;7.430;2022-09-11T03:28:26;95557.28;;;20.20;50.53
26861;BME280;37676;46.956;7.430;2022-09-11T03:30:51;95565.06;;;20.27;50.52
26861;BME280;37676;46.956;7.430;2022-09-11T03:33:17;95566.41;;;20.26;50.54
26861;BME280;37676;46.956;7.430;2022-09-11T03:35:43;95560.13;;;20.20;50.54
26861;BME280;37676;46.956;7.430;2022-09-11T03:38:09;95550.03;;;20.12;50.55
26861;BME280;37676;46.956;7.430;2022-09-11T03:40:34;95517.00;;;19.86;50.56
26861;BME280;37676;46.956;7.430;2022-09-11T03:42:59;95564.88;;;20.25;50.61
26861;BME280;37676;46.956;7.430;2022-09-11T03:45:25;95572.41;;;20.23;50.63
26861;BME280;37676;46.956;7.430;2022-09-11T03:47:50;95495.75;;;19.72;50.62
26861;BME280;37676;46.956;7.430;2022-09-11T03:50:15;95569.69;;;20.17;50.64
26861;BME280;37676;46.956;7.430;2022-09-11T03:52:41;95534.25;;;19.96;50.56
26861;BME280;37676;46.956;7.430;2022-09-11T03:55:07;95579.22;;;20.14;50.59
26861;BME280;37676;46.956;7.430;2022-09-11T03:57:33;95568.47;;;20.13;50.66
26861;BME280;37676;46.956;7.430;2022-09-11T03:59:59;95579.03;;;20.12;50.60
26861;BME280;37676;46.956;7.430;2022-09-11T04:02:26;95475.75;;;19.49;50.40
26861;BME280;37676;46.956;7.430;2022-09-11T04:04:51;95503.28;;;19.69;50.74
26861;BME280;37676;46.956;7.430;2022-09-11T04:07:17;95552.81;;;19.91;50.59
26861;BME280;37676;46.956;7.430;2022-09-11T04:09:42;95552.34;;;20.00;50.60
26861;BME280;37676;46.956;7.430;2022-09-11T04:12:07;95569.16;;;20.06;50.69
26861;BME280;37676;46.956;7.430;2022-09-11T04:14:33;95523.34;;;19.79;50.71
26861;BME280;37676;46.956;7.430;2022-09-11T04:16:58;95566.91;;;20.04;50.78
26861;BME280;37676;46.956;7.430;2022-09-11T04:19:24;95514.56;;;19.69;50.73
26861;BME280;37676;46.956;7.430;2022-09-11T04:21:49;95557.78;;;19.98;50.63
26861;BME280;37676;46.956;7.430;2022-09-11T04:24:15;95268.78;;;17.99;50.63
26861;BME280;37676;46.956;7.430;2022-09-11T04:26:40;95561.72;;;19.95;50.60
26861;BME280;37676;46.956;7.430;2022-09-11T04:29:05;95473.06;;;19.31;50.73
26861;BME280;37676;46.956;7.430;2022-09-11T04:31:33;95559.22;;;19.92;50.75
26861;BME280;37676;46.956;7.430;2022-09-11T04:33:59;95561.06;;;19.89;50.65
26861;BME280;37676;46.956;7.430;2022-09-11T04:36:24;95563.47;;;19.85;50.65
26861;BME280;37676;46.956;7.430;2022-09-11T04:38:54;95570.66;;;19.86;50.74
26861;BME280;37676;46.956;7.430;2022-09-11T04:41:19;95532.28;;;19.57;50.76
26861;BME280;37676;46.956;7.430;2022-09-11T04:43:45;95576.44;;;19.81;50.82
26861;BME280;37676;46.956;7.430;2022-09-11T04:46:13;95566.63;;;19.82;50.72
26861;BME280;37676;46.956;7.430;2022-09-11T04:48:46;95567.19;;;19.80;50.83
26861;BME280;37676;46.956;7.430;2022-09-11T04:51:26;95572.63;;;19.78;50.83
26861;BME280;37676;46.956;7.430;2022-09-11T04:53:53;95521.25;;;19.46;50.83
26861;BME280;37676;46.956;7.430;2022-09-11T04:56:26;95522.53;;;19.45;50.82
26861;BME280;37676;46.956;7.430;2022-09-11T04:58:59;95585.03;;;19.75;50.89
26861;BME280;37676;46.956;7.430;2022-09-11T05:01:27;95582.75;;;19.73;50.94
26861;BME280;37676;46.956;7.430;2022-09-11T05:03:52;95587.63;;;19.73;50.95
26861;BME280;37676;46.956;7.430;2022-09-11T05:06:18;95577.63;;;19.72;51.23
26861;BME280;37676;46.956;7.430;2022-09-11T05:08:45;95567.03;;;19.52;50.90
26861;BME280;37676;46.956;7.430;2022-09-11T05:11:12;95592.06;;;19.68;51.03
26861;BME280;37676;46.956;7.430;2022-09-11T05:13:39;95577.97;;;19.55;50.95
26861;BME280;37676;46.956;7.430;2022-09-11T05:16:11;95619.34;;;19.66;50.93
26861;BME280;37676;46.956;7.430;2022-09-11T05:18:38;95600.44;;;19.61;51.08
26861;BME280;37676;46.956;7.430;2022-09-11T05:21:06;95602.31;;;19.58;51.10
26861;BME280;37676;46.956;7.430;2022-09-11T05:23:31;95393.78;;;18.22;51.02
26861;BME280;37676;46.956;7.430;2022-09-11T05:25:59;95599.59;;;19.53;51.07
26861;BME280;37676;46.956;7.430;2022-09-11T05:28:26;95581.91;;;19.39;51.07
26861;BME280;37676;46.956;7.430;2022-09-11T05:30:55;95599.38;;;19.51;51.05
26861;BME280;37676;46.956;7.430;2022-09-11T05:33:22;95590.06;;;19.43;51.01
26861;BME280;37676;46.956;7.430;2022-09-11T05:35:49;95604.59;;;19.47;51.13
26861;BME280;37676;46.956;7.430;2022-09-11T05:38:15;95591.25;;;19.34;51.12
26861;BME280;37676;46.956;7.430;2022-09-11T05:40:49;95592.03;;;19.35;51.10
26861;BME280;37676;46.956;7.430;2022-09-11T05:43:15;95446.88;;;18.31;51.15
26861;BME280;37676;46.956;7.430;2022-09-11T05:45:41;95605.91;;;19.33;51.28
26861;BME280;37676;46.956;7.430;2022-09-11T05:48:08;95575.50;;;19.13;51.31
26861;BME280;37676;46.956;7.430;2022-09-11T05:50:34;95575.50;;;19.13;51.29
26861;BME280;37676;46.956;7.430;2022-09-11T05:53:00;95617.50;;;19.42;51.15
26861;BME280;37676;46.956;7.430;2022-09-11T05:55:25;95617.31;;;19.40;51.34
26861;BME280;37676;46.956;7.430;2022-09-11T05:57:51;95613.19;;;19.41;51.33
26861;BME280;37676;46.956;7.430;2022-09-11T06:00:17;95618.06;;;19.41;51.29
26861;BME280;37676;46.956;7.430;2022-09-11T06:02:43;95603.19;;;19.27;51.17
26861;BME280;37676;46.956;7.430;2022-09-11T06:05:09;95624.47;;;19.41;51.28
26861;BME280;37676;46.956;7.430;2022-09-11T06:07:35;95634.97;;;19.41;51.27
26861;BME280;37676;46.956;7.430;2022-09-11T06:10:00;95600.47;;;19.22;51.28
26861;BME280;37676;46.956;7.430;2022-09-11T06:12:25;95577.00;;;19.01;51.41
26861;BME280;37676;46.956;7.430;2022-09-11T06:14:51;95638.91;;;19.38;51.20
26861;BME280;37676;46.956;7.430;2022-09-11T06:17:16;95648.53;;;19.42;51.30
26861;BME280;37676;46.956;7.430;2022-09-11T06:19:42;95641.41;;;19.41;51.23
26861;BME280;37676;46.956;7.430;2022-09-11T06:22:07;95648.53;;;19.42;51.36
26861;BME280;37676;46.956;7.430;2022-09-11T06:24:33;95654.97;;;19.43;51.38
26861;BME280;37676;46.956;7.430;2022-09-11T06:26:58;95653.44;;;19.42;51.37
26861;BME280;37676;46.956;7.430;2022-09-11T06:29:24;95653.44;;;19.42;51.31
26861;BME280;37676;46.956;7.430;2022-09-11T06:31:49;95660.59;;;19.43;51.45
26861;BME280;37676;46.956;7.430;2022-09-11T06:34:16;95653.44;;;19.42;51.48
26861;BME280;37676;46.956;7.430;2022-09-11T06:36:42;95656.28;;;19.42;51.39
26861;BME280;37676;46.956;7.430;2022-09-11T06:39:08;95652.91;;;19.43;51.54
26861;BME280;37676;46.956;7.430;2022-09-11T06:41:33;95656.72;;;19.46;51.55
26861;BME280;37676;46.956;7.430;2022-09-11T06:43:58;95658.00;;;19.45;51.57
26861;BME280;37676;46.956;7.430;2022-09-11T06:46:24;95589.06;;;19.01;51.74
26861;BME280;37676;46.956;7.430;2022-09-11T06:48:50;95651.69;;;19.52;51.57
26861;BME280;37676;46.956;7.430;2022-09-11T06:51:17;95562.69;;;18.99;51.49
26861;BME280;37676;46.956;7.430;2022-09-11T06:53:44;95643.88;;;19.58;51.65
26861;BME280;37676;46.956;7.430;2022-09-11T06:56:11;95652.56;;;19.60;51.55
26861;BME280;37676;46.956;7.430;2022-09-11T06:58:37;95497.59;;;18.57;51.62
26861;BME280;37676;46.956;7.430;2022-09-11T07:01:18;95648.09;;;19.64;51.63
26861;BME280;37676;46.956;7.430;2022-09-11T07:03:45;95597.53;;;19.27;51.75
26861;BME280;37676;46.956;7.430;2022-09-11T07:06:12;95654.19;;;19.68;51.71
26861;BME280;37676;46.956;7.430;2022-09-11T07:08:37;95646.69;;;19.71;51.70
26861;BME280;37676;46.956;7.430;2022-09-11T07:11:03;95657.66;;;19.74;51.84
26861;BME280;37676;46.956;7.430;2022-09-11T07:13:29;95631.50;;;19.61;51.72
26861;BME280;37676;46.956;7.430;2022-09-11T07:16:00;95651.13;;;19.80;51.87
26861;BME280;37676;46.956;7.430;2022-09-11T07:18:31;95468.81;;;18.64;51.64
26861;BME280;37676;46.956;7.430;2022-09-11T07:20:57;95533.63;;;19.17;51.99
26861;BME280;37676;46.956;7.430;2022-09-11T07:23:24;95648.06;;;19.91;51.82
26861;BME280;37676;46.956;7.430;2022-09-11T07:25:49;95647.00;;;19.94;51.91
26861;BME280;37676;46.956;7.430;2022-09-11T07:28:14;95648.16;;;19.98;52.10
26861;BME280;37676;46.956;7.430;2022-09-11T07:30:40;95479.75;;;18.94;51.98
26861;BME280;37676;46.956;7.430;2022-09-11T07:33:05;95640.56;;;20.06;51.91
26861;BME280;37676;46.956;7.430;2022-09-11T07:35:31;95556.50;;;19.52;51.93
26861;BME280;37676;46.956;7.430;2022-09-11T07:37:57;95645.75;;;20.15;52.04
26861;BME280;37676;46.956;7.430;2022-09-11T07:40:22;95644.66;;;20.18;52.15
26861;BME280;37676;46.956;7.430;2022-09-11T07:42:48;95647.91;;;20.22;52.11
26861;BME280;37676;46.956;7.430;2022-09-11T07:45:13;95565.94;;;19.68;52.20
26861;BME280;37676;46.956;7.430;2022-09-11T07:47:38;95298.03;;;17.96;51.88
26861;BME280;37676;46.956;7.430;2022-09-11T07:50:04;95654.63;;;20.32;52.09
26861;BME280;37676;46.956;7.430;2022-09-11T07:52:30;95480.03;;;19.17;51.98
26861;BME280;37676;46.956;7.430;2022-09-11T07:54:56;95493.47;;;19.37;52.05
26861;BME280;37676;46.956;7.430;2022-09-11T07:57:21;95648.50;;;20.41;52.06
26861;BME280;37676;46.956;7.430;2022-09-11T07:59:48;95617.25;;;20.26;52.02
26861;BME280;37676;46.956;7.430;2022-09-11T08:02:13;95631.75;;;20.43;52.09
26861;BME280;37676;46.956;7.430;2022-09-11T08:04:39;95627.63;;;20.44;52.06
26861;BME280;37676;46.956;7.430;2022-09-11T08:07:04;95635.84;;;20.55;51.96
26861;BME280;37676;46.956;7.430;2022-09-11T08:09:30;95607.41;;;20.40;52.01
26861;BME280;37676;46.956;7.430;2022-09-11T08:11:56;95575.63;;;20.27;51.88
26861;BME280;37676;46.956;7.430;2022-09-11T08:14:26;95395.25;;;19.02;51.72
26861;BME280;37676;46.956;7.430;2022-09-11T08:16:52;95629.34;;;20.68;51.76
26861;BME280;37676;46.956;7.430;2022-09-11T08:19:20;95629.00;;;20.71;51.78
26861;BME280;37676;46.956;7.430;2022-09-11T08:21:47;95365.72;;;19.03;51.64
26861;BME280;37676;46.956;7.430;2022-09-11T08:24:14;95622.69;;;20.79;51.64
26861;BME280;37676;46.956;7.430;2022-09-11T08:26:41;95630.25;;;20.84;51.56
26861;BME280;37676;46.956;7.430;2022-09-11T08:29:07;95443.44;;;19.71;51.45
26861;BME280;37676;46.956;7.430;2022-09-11T08:31:32;95561.34;;;20.53;51.61
26861;BME280;37676;46.956;7.430;2022-09-11T08:33:59;95602.38;;;20.88;51.36
26861;BME280;37676;46.956;7.430;2022-09-11T08:36:25;95617.78;;;21.00;51.17
26861;BME280;37676;46.956;7.430;2022-09-11T08:38:50;95620.25;;;21.03;51.15
26861;BME280;37676;46.956;7.430;2022-09-11T08:44:20;95621.84;;;21.12;50.96
26861;BME280;37676;46.956;7.430;2022-09-11T08:46:49;95624.53;;;21.17;50.80
26861;BME280;37676;46.956;7.430;2022-09-11T08:49:38;95624.16;;;21.21;50.47
26861;BME280;37676;46.956;7.430;2022-09-11T08:52:05;95552.91;;;20.81;50.57
26861;BME280;37676;46.956;7.430;2022-09-11T08:54:32;95622.75;;;21.35;50.64
26861;BME280;37676;46.956;7.430;2022-09-11T09:05:48;95623.34;;;21.69;50.41
26861;BME280;37676;46.956;7.430;2022-09-11T09:10:50;95620.38;;;21.82;50.11
26861;BME280;37676;46.956;7.430;2022-09-11T09:13:56;95567.34;;;21.47;49.83
26861;BME280;37676;46.956;7.430;2022-09-11T09:19:31;95621.97;;;21.98;49.41
26861;BME280;37676;46.956;7.430;2022-09-11T09:22:06;95612.75;;;22.05;49.41
26861;BME280;37676;46.956;7.430;2022-09-11T09:24:55;95613.34;;;22.11;48.94
26861;BME280;37676;46.956;7.430;2022-09-11T09:27:36;95627.16;;;22.22;49.27
26861;BME280;37676;46.956;7.430;2022-09-11T09:30:05;95586.69;;;22.14;48.69
26861;BME280;37676;46.956;7.430;2022-09-11T09:32:44;95603.00;;;22.29;48.20
26861;BME280;37676;46.956;7.430;2022-09-11T09:35:21;95605.66;;;22.42;48.38
26861;BME280;37676;46.956;7.430;2022-09-11T09:37:47;95595.28;;;22.44;48.87
26861;BME280;37676;46.956;7.430;2022-09-11T09:40:15;95437.13;;;21.54;48.49
26861;BME280;37676;46.956;7.430;2022-09-11T09:45:17;95587.41;;;22.81;48.50
26861;BME280;37676;46.956;7.430;2022-09-11T09:47:47;95591.94;;;22.84;48.21
26861;BME280;37676;46.956;7.430;2022-09-11T09:50:23;95596.50;;;23.02;48.39
26861;BME280;37676;46.956;7.430;2022-09-11T09:52:50;95427.78;;;21.97;47.91
26861;BME280;37676;46.956;7.430;2022-09-11T09:55:19;95599.69;;;23.21;47.53
26861;BME280;37676;46.956;7.430;2022-09-11T09:57:44;95586.22;;;23.29;47.65
26861;BME280;37676;46.956;7.430;2022-09-11T10:00:17;95585.09;;;23.39;47.29
26861;BME280;37676;46.956;7.430;2022-09-11T10:02:51;95586.97;;;23.52;47.27
26861;BME280;37676;46.956;7.430;2022-09-11T10:05:29;95583.53;;;23.61;46.89
26861;BME280;37676;46.956;7.430;2022-09-11T10:07:56;95580.53;;;23.59;46.95
26861;BME280;37676;46.956;7.430;2022-09-11T10:10:30;95587.84;;;23.77;46.69
26861;BME280;37676;46.956;7.430;2022-09-11T10:13:00;95533.53;;;23.58;46.39
26861;BME280;37676;46.956;7.430;2022-09-11T10:15:26;95599.31;;;23.94;46.54
26861;BME280;37676;46.956;7.430;2022-09-11T10:17:53;95575.25;;;24.03;46.55
26861;BME280;37676;46.956;7.430;2022-09-11T10:20:23;95578.25;;;24.12;46.33
26861;BME280;37676;46.956;7.430;2022-09-11T10:22:54;95574.97;;;24.23;46.24
26861;BME280;37676;46.956;7.430;2022-09-11T10:25:24;95570.16;;;24.33;46.33
26861;BME280;37676;46.956;7.430;2022-09-11T10:28:01;95568.03;;;24.41;45.71
26861;BME280;37676;46.956;7.430;2022-09-11T10:30:37;95570.25;;;24.50;45.27
26861;BME280;37676;46.956;7.430;2022-09-11T10:33:26;95566.41;;;24.55;45.77
26861;BME280;37676;46.956;7.430;2022-09-11T10:35:54;95568.63;;;24.65;45.27
26861;BME280;37676;46.956;7.430;2022-09-11T10:38:28;95568.38;;;24.70;45.05
26861;BME280;37676;46.956;7.430;2022-09-11T10:40:55;95564.47;;;24.66;44.90
26861;BME280;37676;46.956;7.430;2022-09-11T10:43:24;95405.28;;;23.69;45.09
26861;BME280;37676;46.956;7.430;2022-09-11T10:46:23;95561.63;;;24.90;45.07
26861;BME280;37676;46.956;7.430;2022-09-11T10:48:58;95574.66;;;25.01;43.71
26861;BME280;37676;46.956;7.430;2022-09-11T10:51:26;95561.00;;;24.99;44.21
26861;BME280;37676;46.956;7.430;2022-09-11T10:54:05;95554.66;;;25.08;44.87
26861;BME280;37676;46.956;7.430;2022-09-11T10:56:37;95484.44;;;24.62;44.52
26861;BME280;37676;46.956;7.430;2022-09-11T10:59:11;95558.75;;;25.15;44.48
26861;BME280;37676;46.956;7.430;2022-09-11T11:01:42;95563.19;;;25.25;44.05
26861;BME280;37676;46.956;7.430;2022-09-11T11:04:10;95401.34;;;24.21;44.21
26861;BME280;37676;46.956;7.430;2022-09-11T11:07:33;95538.91;;;25.24;44.25
26861;BME280;37676;46.956;7.430;2022-09-11T11:20:30;95570.72;;;25.72;43.78
26861;BME280;37676;46.956;7.430;2022-09-11T11:25:56;95540.03;;;25.80;43.56
26861;BME280;37676;46.956;7.430;2022-09-11T11:36:50;95549.91;;;25.96;42.05
26861;BME280;37676;46.956;7.430;2022-09-11T11:39:37;95553.09;;;26.00;41.99
26861;BME280;37676;46.956;7.430;2022-09-11T11:45:15;95520.00;;;25.88;41.52
26861;BME280;37676;46.956;7.430;2022-09-11T11:47:44;95548.97;;;26.11;41.68
26861;BME280;37676;46.956;7.430;2022-09-11T11:50:36;95541.69;;;26.17;41.13
26861;BME280;37676;46.956;7.430;2022-09-11T11:53:23;95540.91;;;26.17;41.38
26861;BME280;37676;46.956;7.430;2022-09-11T12:00:55;95394.59;;;25.27;39.38
26861;BME280;37676;46.956;7.430;2022-09-11T12:03:33;95525.91;;;26.16;39.77
26861;BME280;37676;46.956;7.430;2022-09-11T12:06:00;95442.66;;;25.57;39.93
26861;BME280;37676;46.956;7.430;2022-09-11T12:08:27;95529.09;;;26.20;40.28
26861;BME280;37676;46.956;7.430;2022-09-11T12:10:58;95536.28;;;26.21;40.13
26861;BME280;37676;46.956;7.430;2022-09-11T12:13:30;95525.63;;;26.22;39.94
26861;BME280;37676;46.956;7.430;2022-09-11T12:16:19;95524.56;;;26.17;39.69
26861;BME280;37676;46.956;7.430;2022-09-11T12:21:34;95512.81;;;26.13;40.19
26861;BME280;37676;46.956;7.430;2022-09-11T12:26:29;95516.63;;;26.25;39.25
26861;BME280;37676;46.956;7.430;2022-09-11T12:37:30;95501.59;;;26.15;39.49
26861;BME280;37676;46.956;7.430;2022-09-11T12:45:00;95338.16;;;25.16;39.59
26861;BME280;37676;46.956;7.430;2022-09-11T12:47:32;95501.03;;;26.26;39.32
26861;BME280;37676;46.956;7.430;2022-09-11T12:52:35;95495.81;;;26.32;39.27
26861;BME280;37676;46.956;7.430;2022-09-11T12:55:22;95491.19;;;26.37;39.50
26861;BME280;37676;46.956;7.430;2022-09-11T12:57:49;95484.81;;;26.29;38.94
26861;BME280;37676;46.956;7.430;2022-09-11T13:00:23;95488.66;;;26.41;38.12
26861;BME280;37676;46.956;7.430;2022-09-11T13:02:53;95472.69;;;26.28;38.66
26861;BME280;37676;46.956;7.430;2022-09-11T13:05:27;95447.41;;;26.15;38.54
26861;BME280;37676;46.956;7.430;2022-09-11T13:08:01;95481.75;;;26.44;38.54
26861;BME280;37676;46.956;7.430;2022-09-11T13:10:37;95480.72;;;26.49;38.01
26861;BME280;37676;46.956;7.430;2022-09-11T13:13:05;95480.72;;;26.49;38.33
26861;BME280;37676;46.956;7.430;2022-09-11T13:15:39;95415.59;;;26.19;38.42
26861;BME280;37676;46.956;7.430;2022-09-11T13:20:59;95474.75;;;26.64;38.77
26861;BME280;37676;46.956;7.430;2022-09-11T13:23:26;95466.09;;;26.72;38.61
26861;BME280;37676;46.956;7.430;2022-09-11T13:25:55;95463.56;;;26.76;38.55
26861;BME280;37676;46.956;7.430;2022-09-11T13:28:23;95456.50;;;26.77;38.37
26861;BME280;37676;46.956;7.430;2022-09-11T13:30:54;95453.94;;;26.81;38.41
26861;BME280;37676;46.956;7.430;2022-09-11T13:33:22;95446.91;;;26.82;38.27
26861;BME280;37676;46.956;7.430;2022-09-11T13:35:50;95449.75;;;26.82;37.78
26861;BME280;37676;46.956;7.430;2022-09-11T13:38:25;95457.28;;;26.87;37.68
26861;BME280;37676;46.956;7.430;2022-09-11T13:40:55;95455.63;;;26.84;37.75
26861;BME280;37676;46.956;7.430;2022-09-11T13:43:43;95439.06;;;26.82;37.89
26861;BME280;37676;46.956;7.430;2022-09-11T13:46:18;95399.19;;;26.56;37.80
26861;BME280;37676;46.956;7.430;2022-09-11T13:48:47;95432.34;;;26.87;37.33
26861;BME280;37676;46.956;7.430;2022-09-11T13:51:16;95443.28;;;26.81;36.84
26861;BME280;37676;46.956;7.430;2022-09-11T13:53:44;95421.34;;;26.74;36.99
26861;BME280;37676;46.956;7.430;2022-09-11T13:56:44;95429.75;;;26.72;37.10
26861;BME280;37676;46.956;7.430;2022-09-11T14:02:43;95415.13;;;26.68;37.07
26861;BME280;37676;46.956;7.430;2022-09-11T14:05:24;95417.22;;;26.68;37.28
26861;BME280;37676;46.956;7.430;2022-09-11T14:08:06;95260.78;;;25.63;37.22
26861;BME280;37676;46.956;7.430;2022-09-11T14:15:56;95410.78;;;26.67;36.97
26861;BME280;37676;46.956;7.430;2022-09-11T14:18:28;95394.53;;;26.60;36.69
26861;BME280;37676;46.956;7.430;2022-09-11T14:20:56;95419.19;;;26.65;36.85
26861;BME280;37676;46.956;7.430;2022-09-11T14:23:25;95373.91;;;26.42;35.85
26861;BME280;37676;46.956;7.430;2022-09-11T14:26:12;95403.84;;;26.61;35.98
26861;BME280;37676;46.956;7.430;2022-09-11T14:31:06;95401.59;;;26.59;36.46
26861;BME280;37676;46.956;7.430;2022-09-11T14:33:32;95364.88;;;26.36;36.14
26861;BME280;37676;46.956;7.430;2022-09-11T14:36:02;95409.25;;;26.57;36.42
26861;BME280;37676;46.956;7.430;2022-09-11T14:38:28;95397.66;;;26.55;36.27
26861;BME280;37676;46.956;7.430;2022-09-11T14:40:57;95406.22;;;26.55;36.49
26861;BME280;37676;46.956;7.430;2022-09-11T14:43:34;95337.19;;;26.10;36.54
26861;BME280;37676;46.956;7.430;2022-09-11T14:46:02;95353.44;;;26.17;36.61
26861;BME280;37676;46.956;7.430;2022-09-11T14:48:28;95396.63;;;26.50;36.39
26861;BME280;37676;46.956;7.430;2022-09-11T14:50:54;95383.41;;;26.45;36.80
26861;BME280;37676;46.956;7.430;2022-09-11T14:53:28;95390.91;;;26.50;36.72
26861;BME280;37676;46.956;7.430;2022-09-11T14:55:56;95411.50;;;26.49;36.58
26861;BME280;37676;46.956;7.430;2022-09-11T14:58:23;95382.16;;;26.38;36.68
26861;BME280;37676;46.956;7.430;2022-09-11T15:00:48;95364.28;;;26.28;36.50
26861;BME280;37676;46.956;7.430;2022-09-11T15:03:14;95388.78;;;26.41;36.42